sensor_id;sensor_type;location;lat;lon;timestamp;P1;durP1;ratioP1;P2;durP2;ratioP2
22673;SDS011;11504;43.334;21.918;2022-10-26T00:03:00;25.0;;;24.0;;
22673;SDS011;11504;43.334;21.918;2022-10-26T00:07:37;27.0;;;25.0;;
22673;SDS011;11504;43.334;21.918;2022-10-26T00:12:14;27.0;;;25.0;;
22673;SDS011;11504;43.334;21.918;2022-10-26T00:16:51;24.0;;;22.0;;
22673;SDS011;11504;43.334;21.918;2022-10-26T00:21:27;24.0;;;22.0;;
22673;SDS011;11504;43.334;21.918;2022-10-26T00:26:04;20.0;;;19.0;;
22673;SDS011;11504;43.334;21.918;2022-10-26T00:30:44;20.0;;;19.0;;
22673;SDS011;11504;43.334;21.918;2022-10-26T00:35:21;20.0;;;19.0;;
22673;SDS011;11504;43.334;21.918;2022-10-26T00:39:57;18.0;;;18.0;;
22673;SDS011;11504;43.334;21.918;2022-10-26T00:44:55;18.0;;;18.0;;
22673;SDS011;11504;43.334;21.918;2022-10-26T00:49:56;17.0;;;16.0;;
22673;SDS011;11504;43.334;21.918;2022-10-26T00:54:55;17.0;;;16.0;;
22673;SDS011;11504;43.334;21.918;2022-10-26T00:59:32;18.0;;;18.0;;
22673;SDS011;11504;43.334;21.918;2022-10-26T01:04:10;18.0;;;18.0;;
22673;SDS011;11504;43.334;21.918;2022-10-26T01:08:53;20.0;;;19.0;;
22673;SDS011;11504;43.334;21.918;2022-10-26T01:13:32;20.0;;;19.0;;
22673;SDS011;11504;43.334;21.918;2022-10-26T01:18:20;20.0;;;18.0;;
22673;SDS011;11504;43.334;21.918;2022-10-26T01:24:44;20.0;;;18.0;;
22673;SDS011;11504;43.334;21.918;2022-10-26T01:30:18;19.0;;;18.0;;
22673;SDS011;11504;43.334;21.918;2022-10-26T01:35:21;19.0;;;18.0;;
22673;SDS011;11504;43.334;21.918;2022-10-26T01:40:28;18.0;;;17.0;;
22673;SDS011;11504;43.334;21.918;2022-10-26T01:45:23;18.0;;;17.0;;
22673;SDS011;11504;43.334;21.918;2022-10-26T01:50:09;17.0;;;16.0;;
22673;SDS011;11504;43.334;21.918;2022-10-26T01:54:47;17.0;;;16.0;;
22673;SDS011;11504;43.334;21.918;2022-10-26T01:59:30;16.0;;;15.0;;
22673;SDS011;11504;43.334;21.918;2022-10-26T02:04:59;16.0;;;15.0;;
22673;SDS011;11504;43.334;21.918;2022-10-26T02:10:44;16.0;;;14.0;;
22673;SDS011;11504;43.334;21.918;2022-10-26T02:16:18;16.0;;;15.0;;
22673;SDS011;11504;43.334;21.918;2022-10-26T02:21:35;16.0;;;15.0;;
22673;SDS011;11504;43.334;21.918;2022-10-26T02:26:29;17.0;;;16.0;;
22673;SDS011;11504;43.334;21.918;2022-10-26T02:31:14;17.0;;;16.0;;
22673;SDS011;11504;43.334;21.918;2022-10-26T02:35:58;16.0;;;16.0;;
22673;SDS011;11504;43.334;21.918;2022-10-26T02:40:51;16.0;;;16.0;;
22673;SDS011;11504;43.334;21.918;2022-10-26T02:45:38;16.0;;;15.0;;
22673;SDS011;11504;43.334;21.918;2022-10-26T02:50:42;16.0;;;15.0;;
22673;SDS011;11504;43.334;21.918;2022-10-26T02:55:48;17.0;;;16.0;;
22673;SDS011;11504;43.334;21.918;2022-10-26T03:00:28;17.0;;;16.0;;
22673;SDS011;11504;43.334;21.918;2022-10-26T03:05:09;17.0;;;16.0;;
22673;SDS011;11504;43.334;21.918;2022-10-26T03:09:59;18.0;;;17.0;;
22673;SDS011;11504;43.334;21.918;2022-10-26T03:14:36;18.0;;;17.0;;
22673;SDS011;11504;43.334;21.918;2022-10-26T03:19:12;18.0;;;17.0;;
22673;SDS011;11504;43.334;21.918;2022-10-26T03:23:49;18.0;;;17.0;;
22673;SDS011;11504;43.334;21.918;2022-10-26T03:28:25;18.0;;;17.0;;
22673;SDS011;11504;43.334;21.918;2022-10-26T03:33:02;18.0;;;17.0;;
22673;SDS011;11504;43.334;21.918;2022-10-26T03:37:39;18.0;;;18.0;;
22673;SDS011;11504;43.334;21.918;2022-10-26T03:42:16;18.0;;;18.0;;
22673;SDS011;11504;43.334;21.918;2022-10-26T03:46:53;19.0;;;18.0;;
22673;SDS011;11504;43.334;21.918;2022-10-26T03:51:30;19.0;;;18.0;;
22673;SDS011;11504;43.334;21.918;2022-10-26T03:56:07;18.0;;;17.0;;
22673;SDS011;11504;43.334;21.918;2022-10-26T04:00:46;18.0;;;17.0;;
22673;SDS011;11504;43.334;21.918;2022-10-26T04:05:25;18.0;;;17.0;;
22673;SDS011;11504;43.334;21.918;2022-10-26T04:10:05;17.0;;;16.0;;
22673;SDS011;11504;43.334;21.918;2022-10-26T04:14:45;17.0;;;16.0;;
22673;SDS011;11504;43.334;21.918;2022-10-26T04:19:22;17.0;;;16.0;;
22673;SDS011;11504;43.334;21.918;2022-10-26T04:23:58;17.0;;;16.0;;
22673;SDS011;11504;43.334;21.918;2022-10-26T04:28:36;17.0;;;15.0;;
22673;SDS011;11504;43.334;21.918;2022-10-26T04:33:12;17.0;;;15.0;;
22673;SDS011;11504;43.334;21.918;2022-10-26T04:37:49;18.0;;;16.0;;
22673;SDS011;11504;43.334;21.918;2022-10-26T04:42:26;18.0;;;16.0;;
22673;SDS011;11504;43.334;21.918;2022-10-26T04:47:02;18.0;;;16.0;;
22673;SDS011;11504;43.334;21.918;2022-10-26T04:51:39;18.0;;;16.0;;
22673;SDS011;11504;43.334;21.918;2022-10-26T04:56:16;18.0;;;16.0;;
22673;SDS011;11504;43.334;21.918;2022-10-26T05:00:53;18.0;;;16.0;;
22673;SDS011;11504;43.334;21.918;2022-10-26T05:05:34;18.0;;;16.0;;
22673;SDS011;11504;43.334;21.918;2022-10-26T05:10:12;17.0;;;16.0;;
22673;SDS011;11504;43.334;21.918;2022-10-26T05:14:48;17.0;;;16.0;;
22673;SDS011;11504;43.334;21.918;2022-10-26T05:19:25;16.0;;;15.0;;
22673;SDS011;11504;43.334;21.918;2022-10-26T05:24:01;16.0;;;15.0;;
22673;SDS011;11504;43.334;21.918;2022-10-26T05:28:39;15.0;;;14.0;;
22673;SDS011;11504;43.334;21.918;2022-10-26T05:33:15;15.0;;;14.0;;
22673;SDS011;11504;43.334;21.918;2022-10-26T05:37:52;17.0;;;16.0;;
22673;SDS011;11504;43.334;21.918;2022-10-26T05:42:29;17.0;;;16.0;;
22673;SDS011;11504;43.334;21.918;2022-10-26T05:47:06;19.0;;;18.0;;
22673;SDS011;11504;43.334;21.918;2022-10-26T05:51:42;19.0;;;18.0;;
22673;SDS011;11504;43.334;21.918;2022-10-26T05:56:30;20.0;;;18.0;;
22673;SDS011;11504;43.334;21.918;2022-10-26T06:01:23;20.0;;;18.0;;
22673;SDS011;11504;43.334;21.918;2022-10-26T06:06:48;20.0;;;19.0;;
22673;SDS011;11504;43.334;21.918;2022-10-26T06:11:34;20.0;;;19.0;;
22673;SDS011;11504;43.334;21.918;2022-10-26T06:16:25;20.0;;;19.0;;
22673;SDS011;11504;43.334;21.918;2022-10-26T06:22:22;20.0;;;19.0;;
22673;SDS011;11504;43.334;21.918;2022-10-26T06:28:22;20.0;;;19.0;;
22673;SDS011;11504;43.334;21.918;2022-10-26T06:33:47;20.0;;;19.0;;
22673;SDS011;11504;43.334;21.918;2022-10-26T06:38:36;21.0;;;20.0;;
22673;SDS011;11504;43.334;21.918;2022-10-26T06:43:31;21.0;;;20.0;;
22673;SDS011;11504;43.334;21.918;2022-10-26T06:48:17;22.0;;;21.0;;
22673;SDS011;11504;43.334;21.918;2022-10-26T06:53:30;22.0;;;21.0;;
22673;SDS011;11504;43.334;21.918;2022-10-26T06:58:43;22.0;;;22.0;;
22673;SDS011;11504;43.334;21.918;2022-10-26T07:03:29;22.0;;;22.0;;
22673;SDS011;11504;43.334;21.918;2022-10-26T07:08:06;23.0;;;22.0;;
22673;SDS011;11504;43.334;21.918;2022-10-26T07:12:43;23.0;;;22.0;;
22673;SDS011;11504;43.334;21.918;2022-10-26T07:17:20;26.0;;;26.0;;
22673;SDS011;11504;43.334;21.918;2022-10-26T07:21:57;26.0;;;26.0;;
22673;SDS011;11504;43.334;21.918;2022-10-26T07:26:34;30.0;;;29.0;;
22673;SDS011;11504;43.334;21.918;2022-10-26T07:31:11;30.0;;;29.0;;
22673;SDS011;11504;43.334;21.918;2022-10-26T07:35:48;30.0;;;29.0;;
22673;SDS011;11504;43.334;21.918;2022-10-26T07:40:25;32.0;;;31.0;;
22673;SDS011;11504;43.334;21.918;2022-10-26T07:45:04;32.0;;;31.0;;
22673;SDS011;11504;43.334;21.918;2022-10-26T07:49:44;35.0;;;33.0;;
22673;SDS011;11504;43.334;21.918;2022-10-26T07:54:20;35.0;;;33.0;;
22673;SDS011;11504;43.334;21.918;2022-10-26T07:58:57;36.0;;;34.0;;
22673;SDS011;11504;43.334;21.918;2022-10-26T08:03:33;36.0;;;34.0;;
22673;SDS011;11504;43.334;21.918;2022-10-26T08:08:11;38.0;;;36.0;;
22673;SDS011;11504;43.334;21.918;2022-10-26T08:12:47;38.0;;;36.0;;
22673;SDS011;11504;43.334;21.918;2022-10-26T08:17:28;38.0;;;36.0;;
22673;SDS011;11504;43.334;21.918;2022-10-26T08:22:05;38.0;;;36.0;;
22673;SDS011;11504;43.334;21.918;2022-10-26T08:26:41;39.0;;;37.0;;
22673;SDS011;11504;43.334;21.918;2022-10-26T08:31:18;39.0;;;37.0;;
22673;SDS011;11504;43.334;21.918;2022-10-26T08:35:55;38.0;;;36.0;;
22673;SDS011;11504;43.334;21.918;2022-10-26T08:40:37;38.0;;;36.0;;
22673;SDS011;11504;43.334;21.918;2022-10-26T08:45:23;38.0;;;36.0;;
22673;SDS011;11504;43.334;21.918;2022-10-26T08:50:23;37.0;;;35.0;;
22673;SDS011;11504;43.334;21.918;2022-10-26T08:55:25;37.0;;;35.0;;
22673;SDS011;11504;43.334;21.918;2022-10-26T09:00:29;32.0;;;30.0;;
22673;SDS011;11504;43.334;21.918;2022-10-26T09:05:14;32.0;;;30.0;;
22673;SDS011;11504;43.334;21.918;2022-10-26T09:10:36;27.0;;;26.0;;
22673;SDS011;11504;43.334;21.918;2022-10-26T09:16:30;24.0;;;24.0;;
22673;SDS011;11504;43.334;21.918;2022-10-26T09:22:12;24.0;;;24.0;;
22673;SDS011;11504;43.334;21.918;2022-10-26T09:27:27;22.0;;;21.0;;
22673;SDS011;11504;43.334;21.918;2022-10-26T09:32:29;22.0;;;21.0;;
22673;SDS011;11504;43.334;21.918;2022-10-26T09:37:26;23.0;;;22.0;;
22673;SDS011;11504;43.334;21.918;2022-10-26T09:42:22;23.0;;;22.0;;
22673;SDS011;11504;43.334;21.918;2022-10-26T09:47:29;24.0;;;23.0;;
22673;SDS011;11504;43.334;21.918;2022-10-26T09:52:20;24.0;;;23.0;;
22673;SDS011;11504;43.334;21.918;2022-10-26T09:56:58;26.0;;;24.0;;
22673;SDS011;11504;43.334;21.918;2022-10-26T10:01:39;26.0;;;24.0;;
22673;SDS011;11504;43.334;21.918;2022-10-26T10:06:18;27.0;;;26.0;;
22673;SDS011;11504;43.334;21.918;2022-10-26T10:10:59;27.0;;;26.0;;
22673;SDS011;11504;43.334;21.918;2022-10-26T10:15:52;27.0;;;26.0;;
22673;SDS011;11504;43.334;21.918;2022-10-26T10:20:52;26.0;;;26.0;;
22673;SDS011;11504;43.334;21.918;2022-10-26T10:25:35;26.0;;;26.0;;
22673;SDS011;11504;43.334;21.918;2022-10-26T10:30:20;26.0;;;25.0;;
22673;SDS011;11504;43.334;21.918;2022-10-26T10:35:22;26.0;;;25.0;;
22673;SDS011;11504;43.334;21.918;2022-10-26T10:40:07;27.0;;;26.0;;
22673;SDS011;11504;43.334;21.918;2022-10-26T10:45:04;27.0;;;26.0;;
22673;SDS011;11504;43.334;21.918;2022-10-26T10:50:03;28.0;;;27.0;;
22673;SDS011;11504;43.334;21.918;2022-10-26T10:55:12;28.0;;;27.0;;
22673;SDS011;11504;43.334;21.918;2022-10-26T11:00:02;26.0;;;25.0;;
22673;SDS011;11504;43.334;21.918;2022-10-26T11:04:59;26.0;;;25.0;;
22673;SDS011;11504;43.334;21.918;2022-10-26T11:10:16;24.0;;;23.0;;
22673;SDS011;11504;43.334;21.918;2022-10-26T11:15:13;24.0;;;23.0;;
22673;SDS011;11504;43.334;21.918;2022-10-26T11:20:10;22.0;;;21.0;;
22673;SDS011;11504;43.334;21.918;2022-10-26T11:25:03;22.0;;;21.0;;
22673;SDS011;11504;43.334;21.918;2022-10-26T11:30:05;19.0;;;19.0;;
22673;SDS011;11504;43.334;21.918;2022-10-26T11:35:03;19.0;;;19.0;;
22673;SDS011;11504;43.334;21.918;2022-10-26T11:40:18;20.0;;;20.0;;
22673;SDS011;11504;43.334;21.918;2022-10-26T11:45:33;20.0;;;20.0;;
22673;SDS011;11504;43.334;21.918;2022-10-26T11:50:40;21.0;;;20.0;;
22673;SDS011;11504;43.334;21.918;2022-10-26T11:55:34;21.0;;;20.0;;
22673;SDS011;11504;43.334;21.918;2022-10-26T12:00:21;20.0;;;19.0;;
22673;SDS011;11504;43.334;21.918;2022-10-26T12:05:07;20.0;;;19.0;;
22673;SDS011;11504;43.334;21.918;2022-10-26T12:10:22;19.0;;;18.0;;
22673;SDS011;11504;43.334;21.918;2022-10-26T12:15:20;19.0;;;18.0;;
22673;SDS011;11504;43.334;21.918;2022-10-26T12:20:50;16.0;;;15.0;;
22673;SDS011;11504;43.334;21.918;2022-10-26T12:25:37;16.0;;;15.0;;
22673;SDS011;11504;43.334;21.918;2022-10-26T12:30:24;13.0;;;12.0;;
22673;SDS011;11504;43.334;21.918;2022-10-26T12:35:30;13.0;;;12.0;;
22673;SDS011;11504;43.334;21.918;2022-10-26T12:40:39;11.0;;;10.0;;
22673;SDS011;11504;43.334;21.918;2022-10-26T12:45:19;11.0;;;10.0;;
22673;SDS011;11504;43.334;21.918;2022-10-26T12:49:59;9.0;;;9.0;;
22673;SDS011;11504;43.334;21.918;2022-10-26T12:55:16;9.0;;;9.0;;
22673;SDS011;11504;43.334;21.918;2022-10-26T13:01:10;8.0;;;8.0;;
22673;SDS011;11504;43.334;21.918;2022-10-26T13:06:42;8.0;;;7.0;;
22673;SDS011;11504;43.334;21.918;2022-10-26T13:11:57;8.0;;;7.0;;
22673;SDS011;11504;43.334;21.918;2022-10-26T13:16:43;9.0;;;8.0;;
22673;SDS011;11504;43.334;21.918;2022-10-26T13:21:23;9.0;;;8.0;;
22673;SDS011;11504;43.334;21.918;2022-10-26T13:26:06;9.0;;;8.0;;
22673;SDS011;11504;43.334;21.918;2022-10-26T13:30:50;10.0;;;9.0;;
22673;SDS011;11504;43.334;21.918;2022-10-26T13:35:27;10.0;;;9.0;;
22673;SDS011;11504;43.334;21.918;2022-10-26T13:40:14;10.0;;;10.0;;
22673;SDS011;11504;43.334;21.918;2022-10-26T13:45:04;10.0;;;10.0;;
22673;SDS011;11504;43.334;21.918;2022-10-26T13:49:58;11.0;;;10.0;;
22673;SDS011;11504;43.334;21.918;2022-10-26T13:54:55;11.0;;;10.0;;
22673;SDS011;11504;43.334;21.918;2022-10-26T13:59:56;13.0;;;12.0;;
22673;SDS011;11504;43.334;21.918;2022-10-26T14:04:53;13.0;;;12.0;;
22673;SDS011;11504;43.334;21.918;2022-10-26T14:09:40;15.0;;;14.0;;
22673;SDS011;11504;43.334;21.918;2022-10-26T14:14:19;15.0;;;14.0;;
22673;SDS011;11504;43.334;21.918;2022-10-26T14:19:14;16.0;;;15.0;;
22673;SDS011;11504;43.334;21.918;2022-10-26T14:24:19;16.0;;;15.0;;
22673;SDS011;11504;43.334;21.918;2022-10-26T14:29:15;17.0;;;16.0;;
22673;SDS011;11504;43.334;21.918;2022-10-26T14:34:03;17.0;;;16.0;;
22673;SDS011;11504;43.334;21.918;2022-10-26T14:38:43;16.0;;;16.0;;
22673;SDS011;11504;43.334;21.918;2022-10-26T14:43:41;16.0;;;16.0;;
22673;SDS011;11504;43.334;21.918;2022-10-26T14:48:24;15.0;;;15.0;;
22673;SDS011;11504;43.334;21.918;2022-10-26T14:53:14;15.0;;;15.0;;
22673;SDS011;11504;43.334;21.918;2022-10-26T14:58:06;15.0;;;14.0;;
22673;SDS011;11504;43.334;21.918;2022-10-26T15:03:02;15.0;;;14.0;;
22673;SDS011;11504;43.334;21.918;2022-10-26T15:07:51;15.0;;;14.0;;
22673;SDS011;11504;43.334;21.918;2022-10-26T15:12:31;15.0;;;14.0;;
22673;SDS011;11504;43.334;21.918;2022-10-26T15:17:20;16.0;;;16.0;;
22673;SDS011;11504;43.334;21.918;2022-10-26T15:22:21;16.0;;;16.0;;
22673;SDS011;11504;43.334;21.918;2022-10-26T15:27:09;18.0;;;17.0;;
22673;SDS011;11504;43.334;21.918;2022-10-26T15:31:58;18.0;;;17.0;;
22673;SDS011;11504;43.334;21.918;2022-10-26T15:36:38;19.0;;;18.0;;
22673;SDS011;11504;43.334;21.918;2022-10-26T15:41:22;19.0;;;18.0;;
22673;SDS011;11504;43.334;21.918;2022-10-26T15:46:09;19.0;;;18.0;;
22673;SDS011;11504;43.334;21.918;2022-10-26T15:50:46;20.0;;;19.0;;
22673;SDS011;11504;43.334;21.918;2022-10-26T15:55:22;20.0;;;19.0;;
22673;SDS011;11504;43.334;21.918;2022-10-26T15:59:59;23.0;;;22.0;;
22673;SDS011;11504;43.334;21.918;2022-10-26T16:04:36;23.0;;;22.0;;
22673;SDS011;11504;43.334;21.918;2022-10-26T16:09:15;26.0;;;24.0;;
22673;SDS011;11504;43.334;21.918;2022-10-26T16:13:53;26.0;;;24.0;;
22673;SDS011;11504;43.334;21.918;2022-10-26T16:18:30;32.0;;;30.0;;
22673;SDS011;11504;43.334;21.918;2022-10-26T16:23:07;32.0;;;30.0;;
22673;SDS011;11504;43.334;21.918;2022-10-26T16:27:43;37.0;;;35.0;;
22673;SDS011;11504;43.334;21.918;2022-10-26T16:32:21;37.0;;;35.0;;
22673;SDS011;11504;43.334;21.918;2022-10-26T16:36:58;44.0;;;42.0;;
22673;SDS011;11504;43.334;21.918;2022-10-26T16:41:34;44.0;;;42.0;;
22673;SDS011;11504;43.334;21.918;2022-10-26T16:46:12;44.0;;;42.0;;
22673;SDS011;11504;43.334;21.918;2022-10-26T16:50:55;52.0;;;49.0;;
22673;SDS011;11504;43.334;21.918;2022-10-26T16:55:39;52.0;;;49.0;;
22673;SDS011;11504;43.334;21.918;2022-10-26T17:00:16;51.0;;;48.0;;
22673;SDS011;11504;43.334;21.918;2022-10-26T17:04:54;51.0;;;48.0;;
22673;SDS011;11504;43.334;21.918;2022-10-26T17:09:31;50.0;;;47.0;;
22673;SDS011;11504;43.334;21.918;2022-10-26T17:14:07;50.0;;;47.0;;
22673;SDS011;11504;43.334;21.918;2022-10-26T17:18:45;49.0;;;46.0;;
22673;SDS011;11504;43.334;21.918;2022-10-26T17:23:28;49.0;;;46.0;;
22673;SDS011;11504;43.334;21.918;2022-10-26T17:28:05;48.0;;;46.0;;
22673;SDS011;11504;43.334;21.918;2022-10-26T17:32:42;48.0;;;46.0;;
22673;SDS011;11504;43.334;21.918;2022-10-26T17:37:19;46.0;;;44.0;;
22673;SDS011;11504;43.334;21.918;2022-10-26T17:41:55;46.0;;;44.0;;
22673;SDS011;11504;43.334;21.918;2022-10-26T17:46:32;45.0;;;42.0;;
22673;SDS011;11504;43.334;21.918;2022-10-26T17:51:11;45.0;;;42.0;;
22673;SDS011;11504;43.334;21.918;2022-10-26T17:56:01;45.0;;;42.0;;
22673;SDS011;11504;43.334;21.918;2022-10-26T18:00:46;46.0;;;44.0;;
22673;SDS011;11504;43.334;21.918;2022-10-26T18:05:23;46.0;;;44.0;;
22673;SDS011;11504;43.334;21.918;2022-10-26T18:10:00;48.0;;;46.0;;
22673;SDS011;11504;43.334;21.918;2022-10-26T18:14:36;48.0;;;46.0;;
22673;SDS011;11504;43.334;21.918;2022-10-26T18:19:12;42.0;;;40.0;;
22673;SDS011;11504;43.334;21.918;2022-10-26T18:23:51;42.0;;;40.0;;
22673;SDS011;11504;43.334;21.918;2022-10-26T18:28:29;36.0;;;34.0;;
22673;SDS011;11504;43.334;21.918;2022-10-26T18:33:09;36.0;;;34.0;;
22673;SDS011;11504;43.334;21.918;2022-10-26T18:37:45;36.0;;;34.0;;
22673;SDS011;11504;43.334;21.918;2022-10-26T18:42:22;36.0;;;34.0;;
22673;SDS011;11504;43.334;21.918;2022-10-26T18:46:58;36.0;;;34.0;;
22673;SDS011;11504;43.334;21.918;2022-10-26T18:51:35;36.0;;;34.0;;
22673;SDS011;11504;43.334;21.918;2022-10-26T18:56:13;36.0;;;34.0;;
22673;SDS011;11504;43.334;21.918;2022-10-26T19:01:04;35.0;;;33.0;;
22673;SDS011;11504;43.334;21.918;2022-10-26T19:05:48;35.0;;;33.0;;
22673;SDS011;11504;43.334;21.918;2022-10-26T19:10:24;34.0;;;32.0;;
22673;SDS011;11504;43.334;21.918;2022-10-26T19:15:01;34.0;;;32.0;;
22673;SDS011;11504;43.334;21.918;2022-10-26T19:19:39;34.0;;;32.0;;
22673;SDS011;11504;43.334;21.918;2022-10-26T19:24:17;34.0;;;32.0;;
22673;SDS011;11504;43.334;21.918;2022-10-26T19:28:59;33.0;;;31.0;;
22673;SDS011;11504;43.334;21.918;2022-10-26T19:33:41;33.0;;;31.0;;
22673;SDS011;11504;43.334;21.918;2022-10-26T19:38:18;35.0;;;34.0;;
22673;SDS011;11504;43.334;21.918;2022-10-26T19:42:57;35.0;;;34.0;;
22673;SDS011;11504;43.334;21.918;2022-10-26T19:47:34;37.0;;;36.0;;
22673;SDS011;11504;43.334;21.918;2022-10-26T19:52:10;37.0;;;36.0;;
22673;SDS011;11504;43.334;21.918;2022-10-26T19:56:48;36.0;;;34.0;;
22673;SDS011;11504;43.334;21.918;2022-10-26T20:01:25;36.0;;;34.0;;
22673;SDS011;11504;43.334;21.918;2022-10-26T20:06:06;36.0;;;34.0;;
22673;SDS011;11504;43.334;21.918;2022-10-26T20:10:47;34.0;;;33.0;;
22673;SDS011;11504;43.334;21.918;2022-10-26T20:15:27;34.0;;;33.0;;
22673;SDS011;11504;43.334;21.918;2022-10-26T20:20:04;34.0;;;33.0;;
22673;SDS011;11504;43.334;21.918;2022-10-26T20:24:45;34.0;;;33.0;;
22673;SDS011;11504;43.334;21.918;2022-10-26T20:29:22;35.0;;;33.0;;
22673;SDS011;11504;43.334;21.918;2022-10-26T20:33:58;35.0;;;33.0;;
22673;SDS011;11504;43.334;21.918;2022-10-26T20:38:35;38.0;;;36.0;;
22673;SDS011;11504;43.334;21.918;2022-10-26T20:43:16;38.0;;;36.0;;
22673;SDS011;11504;43.334;21.918;2022-10-26T20:47:57;42.0;;;40.0;;
22673;SDS011;11504;43.334;21.918;2022-10-26T20:52:43;42.0;;;40.0;;
22673;SDS011;11504;43.334;21.918;2022-10-26T20:57:57;37.0;;;36.0;;
22673;SDS011;11504;43.334;21.918;2022-10-26T21:03:15;37.0;;;36.0;;
22673;SDS011;11504;43.334;21.918;2022-10-26T21:07:51;32.0;;;31.0;;
22673;SDS011;11504;43.334;21.918;2022-10-26T21:12:28;32.0;;;31.0;;
22673;SDS011;11504;43.334;21.918;2022-10-26T21:17:04;28.0;;;26.0;;
22673;SDS011;11504;43.334;21.918;2022-10-26T21:21:41;28.0;;;26.0;;
22673;SDS011;11504;43.334;21.918;2022-10-26T21:26:18;28.0;;;26.0;;
22673;SDS011;11504;43.334;21.918;2022-10-26T21:30:54;23.0;;;22.0;;
22673;SDS011;11504;43.334;21.918;2022-10-26T21:35:36;23.0;;;22.0;;
22673;SDS011;11504;43.334;21.918;2022-10-26T21:40:13;26.0;;;25.0;;
22673;SDS011;11504;43.334;21.918;2022-10-26T21:44:51;26.0;;;25.0;;
22673;SDS011;11504;43.334;21.918;2022-10-26T21:49:27;29.0;;;28.0;;
22673;SDS011;11504;43.334;21.918;2022-10-26T21:54:04;29.0;;;28.0;;
22673;SDS011;11504;43.334;21.918;2022-10-26T21:58:40;30.0;;;28.0;;
22673;SDS011;11504;43.334;21.918;2022-10-26T22:03:17;30.0;;;28.0;;
22673;SDS011;11504;43.334;21.918;2022-10-26T22:07:54;30.0;;;28.0;;
22673;SDS011;11504;43.334;21.918;2022-10-26T22:12:33;30.0;;;28.0;;
22673;SDS011;11504;43.334;21.918;2022-10-26T22:17:09;31.0;;;30.0;;
22673;SDS011;11504;43.334;21.918;2022-10-26T22:21:46;31.0;;;30.0;;
22673;SDS011;11504;43.334;21.918;2022-10-26T22:26:23;31.0;;;30.0;;
22673;SDS011;11504;43.334;21.918;2022-10-26T22:31:02;32.0;;;31.0;;
22673;SDS011;11504;43.334;21.918;2022-10-26T22:35:53;32.0;;;31.0;;
22673;SDS011;11504;43.334;21.918;2022-10-26T22:40:30;34.0;;;33.0;;
22673;SDS011;11504;43.334;21.918;2022-10-26T22:45:07;34.0;;;33.0;;
22673;SDS011;11504;43.334;21.918;2022-10-26T22:49:45;37.0;;;35.0;;
22673;SDS011;11504;43.334;21.918;2022-10-26T22:54:22;37.0;;;35.0;;
22673;SDS011;11504;43.334;21.918;2022-10-26T22:58:59;33.0;;;32.0;;
22673;SDS011;11504;43.334;21.918;2022-10-26T23:03:37;33.0;;;32.0;;
22673;SDS011;11504;43.334;21.918;2022-10-26T23:08:14;29.0;;;28.0;;
22673;SDS011;11504;43.334;21.918;2022-10-26T23:12:51;29.0;;;28.0;;
22673;SDS011;11504;43.334;21.918;2022-10-26T23:17:28;26.0;;;26.0;;
22673;SDS011;11504;43.334;21.918;2022-10-26T23:22:05;26.0;;;26.0;;
22673;SDS011;11504;43.334;21.918;2022-10-26T23:26:41;24.0;;;23.0;;
22673;SDS011;11504;43.334;21.918;2022-10-26T23:31:20;24.0;;;23.0;;
22673;SDS011;11504;43.334;21.918;2022-10-26T23:36:03;24.0;;;23.0;;
22673;SDS011;11504;43.334;21.918;2022-10-26T23:40:47;24.0;;;23.0;;
22673;SDS011;11504;43.334;21.918;2022-10-26T23:45:28;24.0;;;23.0;;
22673;SDS011;11504;43.334;21.918;2022-10-26T23:50:05;24.0;;;23.0;;
22673;SDS011;11504;43.334;21.918;2022-10-26T23:54:44;24.0;;;23.0;;
22673;SDS011;11504;43.334;21.918;2022-10-26T23:59:20;24.0;;;24.0;;
